Airfield :







YOU CAN JOIN US ON...

 
LOGIN :

Register | Disclaimer

   EN    FR    IT 

 









Legend :    VFR   Marginal VFR   IFR   Intensive IFR   Very Intensive IFR
Visi :
Ceiling :
>= 8 km
>= 3000ft
5 to 8 km
1000 to 3000 ft
1500m to 5 km
500 to 1000 ft
800 to 1500m
200 to 500 ft
< 800m
< 200 ft
Symbols :   Thunderstorms  Fog  Heavy snow  Heavy precipitations  Wind > 20 kt







- Airport Elevation : 1442 ft
- IATA code : ZUM


CZUM - Churchill Falls

CURRENT METAR :
  • 170500Z AUTO 14004KT 9SM OVC090 18/14 A2959 RMK SLP022 DENSITY ALT 2500FT

EXPIRED METARs :
  • 170400Z AUTO 14004KT 9SM OVC095 18/14 A2962 RMK SLP032 DENSITY ALT 2400FT

TAF TAF CZUM
Valid from the 17 at 02:00 until the 17 at 14:00 UTC


170138Z 1702/1714 19006KT P6SM BKN120
TEMPO 1702/1712 5SM -SHRA BR BKN050 OVC100
FM171200 20012KT P6SM OVC025
TEMPO 1712/1714 5SM -SHRA BR OVC020
BECMG 1712/1714 25015G25KT RMK FCST BASED ON AUTO OBS. NXT FCST BY 170800Z
CZQX FIR / North America



MET'MAP, your aeronautical weather chart ! - Copyright ORBIFLY December 2007 - Disclaimer

ORBIFLY MET'MAP TEAM :

Programming & Development : Alexandra Zaïnal
Concept & Development : Baudouin d'Aumeries
Co-Development & Prog : Marc-Olivier Méhu
Technical & hardware support : Manuel Goepfert

Contact : metmap@orbifly.com




SOURCES & CREDITS :

   NOAA